Arcola, Indiana
Current Conditions -  °F | °C
As of 3:54 AM on Wednesday 26 Nov 2014 (Local Time) from KFWA Reporting Station
Overcast Overcast  
Wind Chill: -7°   Ceiling: 1300
Heat Index: -4°   Visibility: 10mi
Dew Point: -7°   Wind: 5mph
Humidity: 81%   Direction: 30°NNE
Pressure: 30.18"   Gusts: NA
Location:  41.1°N, 85.29°W
Report Text: KFWA 260854Z 03004KT 10SM OVC013 M04/M07 A3018 RMK AO2 SLP229 T10391067 56007
Loading
Personal Weather Stations






























Interactive Weather Map New forecast layout! Learn more

10-Day Weather Forecast

Advertisements
Track Severe Weather on mobile